createdAt,value
2019-01-12T00:01:20.481Z,78.61
2019-01-12T00:03:52.010Z,79.12
2019-01-12T00:06:23.440Z,79.07
2019-01-12T00:08:54.806Z,79.07
2019-01-12T00:11:26.131Z,78.62
2019-01-12T00:13:57.418Z,78.62
2019-01-12T00:16:28.985Z,77.94
2019-01-12T00:19:00.236Z,79.37
2019-01-12T00:21:31.511Z,78.70
2019-01-12T00:24:03.128Z,78.70
2019-01-12T00:26:34.726Z,78.37
2019-01-12T00:29:06.005Z,78.47
2019-01-12T00:31:37.569Z,78.43
2019-01-12T00:34:08.965Z,77.95
2019-01-12T00:36:43.035Z,78.46
2019-01-12T00:39:14.491Z,78.03
2019-01-12T00:41:46.068Z,78.20
2019-01-12T00:44:17.761Z,78.16
2019-01-12T00:46:49.365Z,77.82
2019-01-12T00:49:20.692Z,77.82
2019-01-12T00:51:52.430Z,78.11
2019-01-12T00:54:24.040Z,78.37
2019-01-12T00:56:55.619Z,77.85
2019-01-12T00:59:27.423Z,77.73
2019-01-12T01:01:58.604Z,77.73
2019-01-12T01:04:30.837Z,77.74
2019-01-12T01:07:02.479Z,77.74
2019-01-12T01:09:33.697Z,77.70
2019-01-12T01:12:05.133Z,77.70
2019-01-12T01:14:36.415Z,77.24
2019-01-12T01:17:07.702Z,77.47
2019-01-12T01:19:39.035Z,77.94
2019-01-12T01:22:10.460Z,77.94
2019-01-12T01:24:45.809Z,78.14
2019-01-12T01:27:15.130Z,77.71
2019-01-12T01:29:47.054Z,77.99
2019-01-12T01:32:18.326Z,77.99
2019-01-12T01:34:50.664Z,78.67
2019-01-12T01:37:22.136Z,77.53
2019-01-12T01:39:53.759Z,77.55
2019-01-12T01:42:25.507Z,77.55
2019-01-12T01:44:57.138Z,77.81
2019-01-12T01:47:28.714Z,77.74
2019-01-12T01:50:00.269Z,77.52
2019-01-12T01:52:32.430Z,77.57
2019-01-12T01:55:04.208Z,77.57
2019-01-12T01:57:35.499Z,78.09
2019-01-12T02:00:12.202Z,78.09
2019-01-12T02:02:43.859Z,77.48
2019-01-12T02:05:15.681Z,77.48
2019-01-12T02:07:47.088Z,78.13
2019-01-12T02:10:23.820Z,77.62
2019-01-12T02:12:55.240Z,78.04
2019-01-12T02:15:27.072Z,78.04
2019-01-12T02:17:58.344Z,78.04
2019-01-12T02:20:29.662Z,78.28
2019-01-12T02:23:01.881Z,77.24
2019-01-12T02:25:33.406Z,77.00
2019-01-12T02:28:04.852Z,77.57
2019-01-12T02:30:36.477Z,77.16
2019-01-12T02:33:08.531Z,73.58
2019-01-12T02:35:39.949Z,73.58
2019-01-12T02:38:11.150Z,67.01
2019-01-12T02:40:42.329Z,66.51
2019-01-12T02:43:14.167Z,66.28
2019-01-12T02:45:45.539Z,66.28
2019-01-12T02:48:19.071Z,66.44
2019-01-12T02:50:50.659Z,66.66
2019-01-12T02:53:22.266Z,66.66
2019-01-12T02:55:53.797Z,66.48
2019-01-12T02:58:25.112Z,66.60
2019-01-12T03:00:57.408Z,66.24
2019-01-12T03:03:29.087Z,66.11
2019-01-12T03:06:00.465Z,66.11
2019-01-12T03:08:32.057Z,65.95
2019-01-12T03:11:03.581Z,66.64
2019-01-12T03:13:35.008Z,67.27
2019-01-12T03:16:06.434Z,67.27
2019-01-12T03:18:37.669Z,67.44
2019-01-12T03:21:09.282Z,67.63
2019-01-12T03:23:41.147Z,68.59
2019-01-12T03:26:12.338Z,68.10
2019-01-12T03:28:44.084Z,67.78
2019-01-12T03:31:15.307Z,67.78
2019-01-12T03:33:46.878Z,67.96
2019-01-12T03:36:18.084Z,67.96
2019-01-12T03:38:49.421Z,67.37
2019-01-12T03:41:20.540Z,67.37
2019-01-12T03:43:51.912Z,67.24
2019-01-12T03:46:23.084Z,67.00
2019-01-12T03:48:55.051Z,67.60
2019-01-12T03:51:26.639Z,67.60
2019-01-12T03:53:59.265Z,67.58
2019-01-12T03:56:30.686Z,67.39
2019-01-12T03:59:02.024Z,66.69
2019-01-12T04:01:33.576Z,66.33
2019-01-12T04:04:05.316Z,66.38
2019-01-12T04:06:37.089Z,66.38
2019-01-12T04:09:13.061Z,66.04
2019-01-12T04:11:44.310Z,66.35
2019-01-12T04:14:16.045Z,66.59
2019-01-12T04:16:47.687Z,66.59
2019-01-12T04:19:19.329Z,66.29
2019-01-12T04:21:50.541Z,66.22
2019-01-12T04:24:22.213Z,66.36
2019-01-12T04:26:53.721Z,66.36
2019-01-12T04:29:25.693Z,65.70
2019-01-12T04:31:56.946Z,65.77
2019-01-12T04:34:29.231Z,65.77
2019-01-12T04:37:01.009Z,66.17
2019-01-12T04:39:32.546Z,66.17
2019-01-12T04:42:03.791Z,66.30
2019-01-12T04:44:35.258Z,66.84
2019-01-12T04:47:06.433Z,66.74
2019-01-12T04:49:37.974Z,67.03
2019-01-12T04:52:09.137Z,67.03
2019-01-12T04:54:41.566Z,67.04
2019-01-12T04:57:12.998Z,67.04
2019-01-12T04:59:44.191Z,67.36
2019-01-12T05:02:15.554Z,67.49
2019-01-12T05:04:46.862Z,67.59
2019-01-12T05:07:18.277Z,67.55
2019-01-12T05:09:49.584Z,67.55
2019-01-12T05:12:21.185Z,67.43
2019-01-12T05:14:52.532Z,67.61
2019-01-12T05:17:23.978Z,67.63
2019-01-12T05:19:55.386Z,67.43
2019-01-12T05:22:26.753Z,67.21
2019-01-12T05:24:58.782Z,67.21
2019-01-12T05:27:31.219Z,66.96
2019-01-12T05:30:02.432Z,68.62
2019-01-12T05:32:33.932Z,68.41
2019-01-12T05:35:05.326Z,68.66
2019-01-12T05:37:36.596Z,68.83
2019-01-12T05:40:08.949Z,68.22
2019-01-12T05:42:41.511Z,66.80
2019-01-12T05:45:13.443Z,66.80
2019-01-12T05:47:44.841Z,67.31
2019-01-12T05:50:16.334Z,66.79
2019-01-12T05:52:48.515Z,67.03
2019-01-12T05:55:20.169Z,67.03
2019-01-12T05:57:51.939Z,66.61
2019-01-12T06:00:24.519Z,66.61
2019-01-12T06:02:56.086Z,66.09
2019-01-12T06:05:27.766Z,64.06
2019-01-12T06:07:59.349Z,65.18
2019-01-12T06:10:30.816Z,59.89
2019-01-12T06:13:02.931Z,59.89
2019-01-12T06:15:34.613Z,57.01
2019-01-12T06:18:06.632Z,57.01
2019-01-12T06:20:38.227Z,58.95
2019-01-12T06:23:11.232Z,57.22
2019-01-12T06:25:43.146Z,56.28
2019-01-12T06:28:14.637Z,54.24
2019-01-12T06:30:45.950Z,54.24
2019-01-12T06:33:17.255Z,55.76
2019-01-12T06:35:48.860Z,55.76
2019-01-12T06:38:20.380Z,54.75
2019-01-12T06:40:52.036Z,55.69
2019-01-12T06:43:23.475Z,56.00
2019-01-12T06:45:54.996Z,54.88
2019-01-12T06:48:26.513Z,52.19
2019-01-12T06:50:57.874Z,51.63
2019-01-12T06:53:29.518Z,51.63
2019-01-12T06:56:01.606Z,52.50
2019-01-12T06:58:33.232Z,53.79
2019-01-12T07:01:05.151Z,52.84
2019-01-12T07:03:36.261Z,53.81
2019-01-12T07:06:08.083Z,53.37
2019-01-12T07:08:39.327Z,53.37
2019-01-12T07:11:10.811Z,51.29
2019-01-12T07:13:42.366Z,51.41
2019-01-12T07:16:13.933Z,50.66
2019-01-12T07:18:45.157Z,50.66
2019-01-12T07:21:16.572Z,51.05
2019-01-12T07:23:47.845Z,51.05
2019-01-12T07:26:19.870Z,48.25
2019-01-12T07:28:51.286Z,49.92
2019-01-12T07:31:23.866Z,49.37
2019-01-12T07:33:56.208Z,51.70
2019-01-12T07:36:27.874Z,51.41
2019-01-12T07:38:59.449Z,52.32
2019-01-12T07:41:30.768Z,51.21
2019-01-12T07:44:02.192Z,50.71
2019-01-12T07:46:33.878Z,51.63
2019-01-12T07:49:05.107Z,51.06
2019-01-12T07:51:36.327Z,50.94
2019-01-12T07:54:10.483Z,51.17
2019-01-12T07:56:42.550Z,51.02
2019-01-12T07:59:14.026Z,51.40
2019-01-12T08:01:45.494Z,50.41
2019-01-12T08:04:16.952Z,50.25
2019-01-12T08:06:48.646Z,49.77
2019-01-12T08:09:20.331Z,49.02
2019-01-12T08:11:51.742Z,47.86
2019-01-12T08:14:23.432Z,49.07
2019-01-12T08:16:55.214Z,50.53
2019-01-12T08:19:26.700Z,50.47
2019-01-12T08:21:58.382Z,49.79
2019-01-12T08:24:30.051Z,48.22
2019-01-12T08:27:01.866Z,49.15
2019-01-12T08:29:33.078Z,49.15
2019-01-12T08:32:04.693Z,48.66
2019-01-12T08:34:36.134Z,49.42
2019-01-12T08:37:10.347Z,51.05
2019-01-12T08:39:41.740Z,52.00
2019-01-12T08:42:13.054Z,52.85
2019-01-12T08:44:44.235Z,50.66
2019-01-12T08:47:15.980Z,46.80
2019-01-12T08:49:47.429Z,47.81
2019-01-12T08:52:18.912Z,47.81
2019-01-12T08:54:50.514Z,46.98
2019-01-12T08:57:22.487Z,47.11
2019-01-12T08:59:53.950Z,46.74
2019-01-12T09:02:25.746Z,47.33
2019-01-12T09:04:57.122Z,48.20
2019-01-12T09:07:28.719Z,48.75
2019-01-12T09:10:00.499Z,48.59
2019-01-12T09:12:32.742Z,47.21
2019-01-12T09:15:04.491Z,47.36
2019-01-12T09:17:36.660Z,47.72
2019-01-12T09:20:12.813Z,47.09
2019-01-12T09:22:45.381Z,47.09
2019-01-12T09:25:17.734Z,47.30
2019-01-12T09:27:50.425Z,46.61
2019-01-12T09:30:24.567Z,46.61
2019-01-12T09:32:56.605Z,47.80
2019-01-12T09:35:27.996Z,47.80
2019-01-12T09:37:59.567Z,47.67
2019-01-12T09:40:31.228Z,47.75
2019-01-12T09:43:02.763Z,48.13
2019-01-12T09:45:34.665Z,47.07
2019-01-12T09:48:06.443Z,46.61
2019-01-12T09:50:37.829Z,46.14
2019-01-12T09:53:09.261Z,46.14
2019-01-12T09:55:43.486Z,47.16
2019-01-12T09:58:15.175Z,46.88
2019-01-12T10:00:47.034Z,47.15
2019-01-12T10:03:18.709Z,47.43
2019-01-12T10:05:50.446Z,47.92
2019-01-12T10:08:21.950Z,48.02
2019-01-12T10:10:53.966Z,47.56
2019-01-12T10:13:25.479Z,47.85
2019-01-12T10:15:57.252Z,47.22
2019-01-12T10:18:28.606Z,47.22
2019-01-12T10:21:00.154Z,47.09
2019-01-12T10:23:31.387Z,47.81
2019-01-12T10:26:04.258Z,47.56
2019-01-12T10:28:35.944Z,47.56
2019-01-12T10:31:08.064Z,47.62
2019-01-12T10:33:39.448Z,48.39
2019-01-12T10:36:11.212Z,48.34
2019-01-12T10:38:42.598Z,48.11
2019-01-12T10:41:14.491Z,49.63
2019-01-12T10:43:45.878Z,49.57
2019-01-12T10:46:17.402Z,50.62
2019-01-12T10:48:48.723Z,48.89
2019-01-12T10:51:20.998Z,49.28
2019-01-12T10:53:54.371Z,50.00
2019-01-12T10:56:28.305Z,49.09
2019-01-12T10:59:02.019Z,47.83
2019-01-12T11:01:34.950Z,46.29
2019-01-12T11:04:07.739Z,46.29
2019-01-12T11:06:40.388Z,46.00
2019-01-12T11:09:12.712Z,47.20
2019-01-12T11:11:45.422Z,47.39
2019-01-12T11:14:17.441Z,47.32
2019-01-12T11:16:48.945Z,48.52
2019-01-12T11:19:20.644Z,48.52
2019-01-12T11:21:52.135Z,47.58
2019-01-12T11:24:24.493Z,45.83
2019-01-12T11:26:56.079Z,44.93
2019-01-12T11:29:27.968Z,44.93
2019-01-12T11:31:59.969Z,44.49
2019-01-12T11:34:31.960Z,44.49
2019-01-12T11:37:03.426Z,45.48
2019-01-12T11:39:35.041Z,43.43
2019-01-12T11:42:06.727Z,44.16
2019-01-12T11:44:39.223Z,44.16
2019-01-12T11:47:10.890Z,47.00
2019-01-12T11:49:42.900Z,47.00
2019-01-12T11:52:14.534Z,47.66
2019-01-12T11:54:45.707Z,48.76
2019-01-12T11:57:19.325Z,49.35
2019-01-12T11:59:50.993Z,49.87
2019-01-12T12:02:22.620Z,50.37
2019-01-12T12:04:53.946Z,50.78
2019-01-12T12:07:25.317Z,51.26
2019-01-12T12:09:56.789Z,51.75
2019-01-12T12:12:28.144Z,52.08
2019-01-12T12:15:00.355Z,52.63
2019-01-12T12:17:31.725Z,52.63
2019-01-12T12:20:03.416Z,52.86
2019-01-12T12:22:34.569Z,53.34
2019-01-12T12:25:06.886Z,53.60
2019-01-12T12:27:41.761Z,54.13
2019-01-12T12:30:17.671Z,54.13
2019-01-12T12:32:49.290Z,54.50
2019-01-12T12:35:20.886Z,54.62
2019-01-12T12:37:52.781Z,54.73
2019-01-12T12:40:25.778Z,54.96
2019-01-12T12:42:58.369Z,55.27
2019-01-12T12:45:32.813Z,55.32
2019-01-12T12:48:05.139Z,55.60
2019-01-12T12:50:37.098Z,55.70
2019-01-12T12:53:08.604Z,56.09
2019-01-12T12:55:40.062Z,56.09
2019-01-12T12:58:11.473Z,56.24
2019-01-12T13:00:43.282Z,56.51
2019-01-12T13:03:15.094Z,56.76
2019-01-12T13:05:46.877Z,56.98
2019-01-12T13:08:18.714Z,57.39
2019-01-12T13:10:50.527Z,57.28
2019-01-12T13:13:22.197Z,57.49
2019-01-12T13:15:53.750Z,57.83
2019-01-12T13:18:25.462Z,58.02
2019-01-12T13:20:56.956Z,57.53
2019-01-12T13:23:28.442Z,57.53
2019-01-12T13:26:01.432Z,57.55
2019-01-12T13:28:33.141Z,57.32
2019-01-12T13:31:04.863Z,57.51
2019-01-12T13:33:36.385Z,57.62
2019-01-12T13:36:08.479Z,57.62
2019-01-12T13:38:39.906Z,57.86
2019-01-12T13:41:11.175Z,57.99
2019-01-12T13:43:43.167Z,58.01
2019-01-12T13:46:14.788Z,58.01
2019-01-12T13:48:46.130Z,58.62
2019-01-12T13:51:17.524Z,58.62
2019-01-12T13:53:48.997Z,59.02
2019-01-12T13:56:20.161Z,59.18
2019-01-12T13:58:51.872Z,59.34
2019-01-12T14:01:23.348Z,59.34
2019-01-12T14:03:54.932Z,59.69
2019-01-12T14:06:27.259Z,59.91
2019-01-12T14:08:58.610Z,59.91
2019-01-12T14:11:30.096Z,60.86
2019-01-12T14:14:01.844Z,61.23
2019-01-12T14:16:33.548Z,61.21
2019-01-12T14:19:05.223Z,61.21
2019-01-12T14:21:36.545Z,61.42
2019-01-12T14:24:08.061Z,61.36
2019-01-12T14:26:39.428Z,61.36
2019-01-12T14:29:11.432Z,61.71
2019-01-12T14:31:43.318Z,61.37
2019-01-12T14:34:14.492Z,61.97
2019-01-12T14:36:46.034Z,62.43
2019-01-12T14:39:17.822Z,62.81
2019-01-12T14:41:49.411Z,62.71
2019-01-12T14:44:20.785Z,62.71
2019-01-12T14:46:53.648Z,63.25
2019-01-12T14:49:28.201Z,63.34
2019-01-12T14:52:03.390Z,61.73
2019-01-12T14:54:34.803Z,61.73
2019-01-12T14:57:06.817Z,61.67
2019-01-12T14:59:38.243Z,62.25
2019-01-12T15:02:09.556Z,62.25
2019-01-12T15:04:41.066Z,65.54
2019-01-12T15:07:12.735Z,66.49
2019-01-12T15:09:44.100Z,66.88
2019-01-12T15:12:15.582Z,67.64
2019-01-12T15:14:46.995Z,68.00
2019-01-12T15:17:18.716Z,67.55
2019-01-12T15:19:50.155Z,67.96
2019-01-12T15:22:22.097Z,67.96
2019-01-12T15:24:54.415Z,68.24
2019-01-12T15:27:26.101Z,67.99
2019-01-12T15:29:57.683Z,68.28
2019-01-12T15:32:29.317Z,68.12
2019-01-12T15:35:00.791Z,68.12
2019-01-12T15:37:32.388Z,68.74
2019-01-12T15:40:03.758Z,68.74
2019-01-12T15:42:35.174Z,68.69
2019-01-12T15:45:08.321Z,68.87
2019-01-12T15:47:40.988Z,68.44
2019-01-12T15:50:18.553Z,68.44
2019-01-12T15:52:50.319Z,69.31
2019-01-12T15:55:21.948Z,69.31
2019-01-12T15:57:53.616Z,70.05
2019-01-12T16:00:30.862Z,70.05
2019-01-12T16:03:02.687Z,70.32
2019-01-12T16:05:34.422Z,70.32
2019-01-12T16:08:06.206Z,69.72
2019-01-12T16:10:38.556Z,69.72
2019-01-12T16:13:10.193Z,70.31
2019-01-12T16:15:41.621Z,70.31
2019-01-12T16:18:14.083Z,70.67
2019-01-12T16:20:45.706Z,70.67
2019-01-12T16:23:17.170Z,71.10
2019-01-12T16:25:49.075Z,71.13
2019-01-12T16:28:23.364Z,71.65
2019-01-12T16:30:53.932Z,71.65
2019-01-12T16:33:26.035Z,71.96
2019-01-12T16:35:57.284Z,71.69
2019-01-12T16:38:29.154Z,71.69
2019-01-12T16:41:00.431Z,71.54
2019-01-12T16:43:32.510Z,71.54
2019-01-12T16:46:04.673Z,71.90
2019-01-12T16:48:36.721Z,71.53
2019-01-12T16:51:08.301Z,71.92
2019-01-12T16:53:39.811Z,71.92
2019-01-12T16:56:11.361Z,71.63
2019-01-12T16:58:44.238Z,71.63
2019-01-12T17:01:15.784Z,71.88
2019-01-12T17:03:47.647Z,71.88
2019-01-12T17:06:19.268Z,72.01
2019-01-12T17:08:51.558Z,72.40
2019-01-12T17:11:23.186Z,72.40
2019-01-12T17:13:55.217Z,72.51
2019-01-12T17:16:27.087Z,72.50
2019-01-12T17:18:58.997Z,72.96
2019-01-12T17:21:30.647Z,72.96
2019-01-12T17:24:02.215Z,72.40
2019-01-12T17:26:35.988Z,72.40
2019-01-12T17:29:07.623Z,72.32
2019-01-12T17:31:40.032Z,72.37
2019-01-12T17:34:11.892Z,73.35
2019-01-12T17:36:43.499Z,73.35
2019-01-12T17:39:16.123Z,72.98
2019-01-12T17:41:47.883Z,73.10
2019-01-12T17:44:19.420Z,73.10
2019-01-12T17:46:51.065Z,72.51
2019-01-12T17:49:22.545Z,72.51
2019-01-12T17:51:54.489Z,72.32
2019-01-12T17:54:26.067Z,72.56
2019-01-12T17:56:57.573Z,72.56
2019-01-12T17:59:29.092Z,72.79
2019-01-12T18:02:00.792Z,74.03
2019-01-12T18:04:32.265Z,74.00
2019-01-12T18:07:03.919Z,74.00
2019-01-12T18:09:35.787Z,73.88
2019-01-12T18:12:07.599Z,73.45
2019-01-12T18:14:39.293Z,73.45
2019-01-12T18:17:10.437Z,73.63
2019-01-12T18:19:43.413Z,73.63
2019-01-12T18:22:14.861Z,73.60
2019-01-12T18:24:46.277Z,73.66
2019-01-12T18:27:18.198Z,73.62
2019-01-12T18:29:49.860Z,73.38
2019-01-12T18:32:21.794Z,73.35
2019-01-12T18:34:53.511Z,73.65
2019-01-12T18:37:24.987Z,73.63
2019-01-12T18:39:56.443Z,73.63
2019-01-12T18:42:27.825Z,74.31
2019-01-12T18:44:59.207Z,74.41
2019-01-12T18:47:30.592Z,73.98
2019-01-12T18:50:01.973Z,73.70
2019-01-12T18:52:33.395Z,74.30
2019-01-12T18:55:05.319Z,74.30
2019-01-12T18:57:36.437Z,74.94
2019-01-12T19:00:18.409Z,74.26
2019-01-12T19:02:45.830Z,74.26
2019-01-12T19:05:17.660Z,74.97
2019-01-12T19:07:49.455Z,75.55
2019-01-12T19:10:20.692Z,75.55
2019-01-12T19:12:52.238Z,74.22
2019-01-12T19:15:34.208Z,74.26
2019-01-12T19:18:06.006Z,74.26
2019-01-12T19:20:37.788Z,73.97
2019-01-12T19:23:09.508Z,73.97
2019-01-12T19:25:40.784Z,74.13
2019-01-12T19:28:12.447Z,74.29
2019-01-12T19:30:43.820Z,74.26
2019-01-12T19:33:15.843Z,74.87
2019-01-12T19:35:46.930Z,74.87
2019-01-12T19:38:18.720Z,75.30
2019-01-12T19:40:50.250Z,75.96
2019-01-12T19:43:21.517Z,74.72
2019-01-12T19:45:52.740Z,74.87
2019-01-12T19:48:24.144Z,74.84
2019-01-12T19:50:55.979Z,74.84
2019-01-12T19:53:27.886Z,75.18
2019-01-12T19:55:59.491Z,75.18
2019-01-12T19:58:31.031Z,74.56
2019-01-12T20:01:03.549Z,74.56
2019-01-12T20:03:35.143Z,74.96
2019-01-12T20:06:07.651Z,75.22
2019-01-12T20:08:42.636Z,74.94
2019-01-12T20:11:14.179Z,74.94
2019-01-12T20:13:46.048Z,75.32
2019-01-12T20:16:17.596Z,74.98
2019-01-12T20:18:49.378Z,75.72
2019-01-12T20:21:20.758Z,75.72
2019-01-12T20:23:52.260Z,75.94
2019-01-12T20:26:23.482Z,75.48
2019-01-12T20:28:55.398Z,75.54
2019-01-12T20:31:45.761Z,75.38
2019-01-12T20:34:54.616Z,76.26
2019-01-12T20:38:03.224Z,76.10
2019-01-12T20:41:09.059Z,76.10
2019-01-12T20:44:26.727Z,74.99
2019-01-12T20:47:38.334Z,75.47
2019-01-12T20:50:30.207Z,75.63
2019-01-12T20:53:35.394Z,76.88
2019-01-12T20:56:31.846Z,76.88
2019-01-12T20:59:28.334Z,77.00
2019-01-12T21:02:31.452Z,77.00
2019-01-12T21:05:36.686Z,76.47
2019-01-12T21:08:48.379Z,76.47
2019-01-12T21:12:22.849Z,76.40
2019-01-12T21:15:15.980Z,76.40
2019-01-12T21:17:47.325Z,76.43
2019-01-12T21:20:19.052Z,75.91
2019-01-12T21:22:50.948Z,75.91
2019-01-12T21:25:22.355Z,75.90
2019-01-12T21:27:54.197Z,75.90
2019-01-12T21:30:25.523Z,75.61
2019-01-12T21:32:56.818Z,76.40
2019-01-12T21:35:28.005Z,76.40
2019-01-12T21:37:59.325Z,76.82
2019-01-12T21:40:31.279Z,76.82
2019-01-12T21:43:02.918Z,77.14
2019-01-12T21:45:34.230Z,77.39
2019-01-12T21:48:05.475Z,77.83
2019-01-12T21:50:36.728Z,76.82
2019-01-12T21:53:07.977Z,76.82
2019-01-12T21:55:39.240Z,76.86
2019-01-12T21:58:11.205Z,76.86
2019-01-12T22:00:42.512Z,76.88
2019-01-12T22:03:13.769Z,77.18
2019-01-12T22:05:45.196Z,77.76
2019-01-12T22:08:17.551Z,77.59
2019-01-12T22:10:49.587Z,77.19
2019-01-12T22:13:21.252Z,77.19
2019-01-12T22:15:52.673Z,76.98
2019-01-12T22:18:24.169Z,76.91
2019-01-12T22:20:55.675Z,76.91
2019-01-12T22:23:27.467Z,76.82
2019-01-12T22:25:58.897Z,76.50
2019-01-12T22:28:30.150Z,76.50
2019-01-12T22:31:01.403Z,77.05
2019-01-12T22:33:33.749Z,77.58
2019-01-12T22:36:05.031Z,77.73
2019-01-12T22:38:36.362Z,76.77
2019-01-12T22:41:08.242Z,76.77
2019-01-12T22:43:39.668Z,76.27
2019-01-12T22:46:11.612Z,76.88
2019-01-12T22:48:44.172Z,76.88
2019-01-12T22:51:15.896Z,77.37
2019-01-12T22:53:47.240Z,77.37
2019-01-12T22:56:18.916Z,77.11
2019-01-12T22:58:50.192Z,77.21
2019-01-12T23:01:50.430Z,77.24
2019-01-12T23:04:23.930Z,78.12
2019-01-12T23:06:55.187Z,76.84
2019-01-12T23:09:26.512Z,76.84
2019-01-12T23:11:59.304Z,78.24
2019-01-12T23:14:30.746Z,78.24
2019-01-12T23:17:02.039Z,77.75
2019-01-12T23:19:33.416Z,77.50
2019-01-12T23:22:05.253Z,76.96
2019-01-12T23:24:37.659Z,77.35
2019-01-12T23:27:09.957Z,77.35
2019-01-12T23:29:41.314Z,77.38
2019-01-12T23:32:12.889Z,78.19
2019-01-12T23:34:44.182Z,78.38
2019-01-12T23:37:15.678Z,78.38
2019-01-12T23:39:47.075Z,77.80
2019-01-12T23:42:18.539Z,77.80
2019-01-12T23:44:50.095Z,77.89
2019-01-12T23:47:21.808Z,78.25
2019-01-12T23:49:53.004Z,78.68
2019-01-12T23:52:24.825Z,78.35
2019-01-12T23:54:56.313Z,78.48
2019-01-12T23:57:27.832Z,78.05
2019-01-12T23:59:59.406Z,79.25
